Time;durP1;ratioP1;P1;durP2;ratioP2;P2;SDS_P1;SDS_P2;PMS_P1;PMS_P2;Temp;Humidity;BMP_temperature;BMP_pressure;BME280_temperature;BME280_humidity;BME280_pressure;Samples;Min_cycle;Max_cycle;Signal;HPM_P1;HPM_P2
2022/06/01 00:00:29;;;;;;;1.05;0.80;;;;;;;-148.56;100.00;61375.16;5075710;28;20118;-32
2022/06/01 00:02:55;;;;;;;1.20;1.02;;;;;;;-148.56;100.00;61375.16;5078640;28;20449;-33
2022/06/01 00:05:20;;;;;;;2.15;1.17;;;;;;;-148.56;100.00;61375.16;5069596;28;20040;-32
2022/06/01 00:07:47;;;;;;;1.45;1.05;;;;;;;-148.56;100.00;61375.16;5076808;28;20501;-30
2022/06/01 00:10:13;;;;;;;2.53;1.00;;;;;;;-148.56;100.00;61375.16;5072963;28;20043;-32
2022/06/01 00:12:38;;;;;;;1.20;0.80;;;;;;;-148.56;100.00;61375.16;5077589;28;20031;-34
2022/06/01 00:15:04;;;;;;;1.63;1.02;;;;;;;-148.56;100.00;61375.16;5079641;28;20031;-31
2022/06/01 00:17:30;;;;;;;2.50;1.10;;;;;;;-148.56;100.00;61375.16;5080026;28;20036;-34
2022/06/01 00:19:55;;;;;;;2.38;0.90;;;;;;;-148.56;100.00;61375.16;5080722;28;20136;-32
2022/06/01 00:22:21;;;;;;;3.47;1.20;;;;;;;-148.56;100.00;61375.16;5081460;28;20468;-32
2022/06/01 00:24:46;;;;;;;2.28;1.02;;;;;;;-148.56;100.00;61375.16;5074118;28;20063;-36
2022/06/01 00:27:12;;;;;;;1.83;1.05;;;;;;;-148.56;100.00;61375.16;5080577;28;20135;-30
2022/06/01 00:29:38;;;;;;;1.52;0.95;;;;;;;-148.56;100.00;61375.16;5087934;28;20032;-29
2022/06/01 00:32:03;;;;;;;1.38;0.80;;;;;;;-148.56;100.00;61375.16;5081448;28;20115;-32
2022/06/01 00:34:29;;;;;;;1.17;0.90;;;;;;;-148.56;100.00;61375.16;5079442;28;20028;-31
2022/06/01 00:36:54;;;;;;;1.92;1.17;;;;;;;-148.56;100.00;61375.16;5083722;28;20036;-31
2022/06/01 00:39:20;;;;;;;4.10;0.90;;;;;;;-148.56;100.00;61375.16;5080327;28;20023;-32
2022/06/01 00:41:45;;;;;;;1.50;0.90;;;;;;;-148.56;100.00;61375.16;5073616;28;20533;-30
2022/06/01 00:44:10;;;;;;;1.45;0.80;;;;;;;-148.56;100.00;61375.16;5079643;28;20023;-28
2022/06/01 00:46:36;;;;;;;1.45;0.82;;;;;;;-148.56;100.00;61375.16;5083226;28;20020;-36
2022/06/01 00:49:14;;;;;;;1.55;0.82;;;;;;;-148.56;100.00;61375.16;5078372;28;20032;-34
2022/06/01 00:51:40;;;;;;;1.33;0.73;;;;;;;-148.56;100.00;61375.16;5056709;28;20113;-33
2022/06/01 00:54:05;;;;;;;2.78;0.80;;;;;;;-148.56;100.00;61375.16;5034339;28;20039;-31
2022/06/01 00:56:34;;;;;;;1.23;0.73;;;;;;;-148.56;100.00;61375.16;5059625;28;20024;-35
2022/06/01 00:59:01;;;;;;;1.30;0.80;;;;;;;-148.56;100.00;61375.16;5080578;28;20028;-30
2022/06/01 01:01:26;;;;;;;2.17;0.80;;;;;;;-148.56;100.00;61375.16;5080876;28;20988;-34
2022/06/01 01:03:55;;;;;;;1.08;0.95;;;;;;;-148.56;100.00;61375.16;5080610;28;20040;-31
2022/06/01 01:06:27;;;;;;;1.40;0.80;;;;;;;-148.56;100.00;61375.16;5076628;28;20468;-31
2022/06/01 01:08:52;;;;;;;1.48;1.05;;;;;;;-148.56;100.00;61375.16;5077363;28;20032;-39
2022/06/01 01:11:53;;;;;;;1.08;0.57;;;;;;;-148.56;100.00;61375.16;5081305;28;20592;-33
2022/06/01 01:14:21;;;;;;;1.85;0.95;;;;;;;-148.56;100.00;61375.16;5063756;28;20166;-32
2022/06/01 01:16:48;;;;;;;2.03;0.98;;;;;;;-148.56;100.00;61375.16;5056802;28;20038;-32
2022/06/01 01:19:19;;;;;;;2.78;0.80;;;;;;;-148.56;100.00;61375.16;5072097;28;20036;-32
2022/06/01 01:22:11;;;;;;;1.40;0.90;;;;;;;-148.56;100.00;61375.16;5058072;28;20504;-33
2022/06/01 01:25:10;;;;;;;0.85;0.77;;;;;;;-148.56;100.00;61375.16;5073807;28;20593;-31
2022/06/01 01:27:36;;;;;;;1.40;0.70;;;;;;;-148.56;100.00;61375.16;5079311;28;20446;-31
2022/06/01 01:30:01;;;;;;;1.42;0.80;;;;;;;-148.56;100.00;61375.16;5081441;28;20032;-31
2022/06/01 01:32:26;;;;;;;0.80;0.70;;;;;;;-148.56;100.00;61375.16;5065664;28;20032;-30
2022/06/01 01:34:52;;;;;;;1.42;0.80;;;;;;;-148.56;100.00;61375.16;5079741;28;20035;-30
2022/06/01 01:37:24;;;;;;;1.42;0.60;;;;;;;-148.56;100.00;61375.16;5083927;28;20034;-31
2022/06/01 01:39:51;;;;;;;1.15;0.80;;;;;;;-148.56;100.00;61375.16;5064935;28;20738;-32
2022/06/01 01:42:16;;;;;;;1.33;1.00;;;;;;;-148.56;100.00;61375.16;5076078;28;20051;-32
2022/06/01 01:44:48;;;;;;;1.45;0.73;;;;;;;-148.56;100.00;61375.16;5078814;28;20039;-30
2022/06/01 01:47:14;;;;;;;1.33;0.80;;;;;;;-148.56;100.00;61375.16;5058675;28;20089;-31
2022/06/01 01:49:39;;;;;;;0.70;0.60;;;;;;;-148.56;100.00;61375.16;5079447;28;20422;-34
2022/06/01 01:52:10;;;;;;;0.70;0.70;;;;;;;-148.56;100.00;61375.16;5082890;28;20782;-31
2022/06/01 01:54:50;;;;;;;1.25;0.80;;;;;;;-148.56;100.00;61375.16;5077211;28;20124;-33
2022/06/01 01:57:22;;;;;;;1.70;0.77;;;;;;;-148.56;100.00;61375.16;5081572;28;20134;-32
2022/06/01 02:00:20;;;;;;;1.00;0.70;;;;;;;-148.56;100.00;61375.16;5076480;28;20127;-32
2022/06/01 02:03:06;;;;;;;1.27;0.80;;;;;;;-148.56;100.00;61375.16;5080710;28;20073;-43
2022/06/01 02:08:27;;;;;;;1.38;0.80;;;;;;;-148.56;100.00;61375.16;5066708;28;20866;-32
2022/06/01 02:13:43;;;;;;;0.82;0.60;;;;;;;-148.56;100.00;61375.16;5074447;28;20339;-31
2022/06/01 02:16:09;;;;;;;0.85;0.55;;;;;;;-148.56;100.00;61375.16;5080897;28;20597;-31
2022/06/01 02:18:38;;;;;;;0.73;0.60;;;;;;;-148.56;100.00;61375.16;5053472;28;20099;-31
2022/06/01 02:21:07;;;;;;;0.73;0.68;;;;;;;-148.56;100.00;61375.16;5079043;28;20027;-33
2022/06/01 02:23:32;;;;;;;2.80;1.13;;;;;;;-148.56;100.00;61375.16;5079980;28;20111;-33
2022/06/01 02:25:59;;;;;;;2.65;0.60;;;;;;;-148.56;100.00;61375.16;5060752;28;20195;-31
2022/06/01 02:28:25;;;;;;;0.68;0.60;;;;;;;-148.56;100.00;61375.16;5058048;28;20702;-31
2022/06/01 02:30:50;;;;;;;0.82;0.55;;;;;;;-148.56;100.00;61375.16;5046984;28;20208;-31
2022/06/01 02:33:18;;;;;;;0.85;0.70;;;;;;;-148.56;100.00;61375.16;5063825;28;20957;-33
2022/06/01 02:35:45;;;;;;;1.08;0.57;;;;;;;-148.56;100.00;61375.16;5058941;28;20099;-34
2022/06/01 02:38:14;;;;;;;1.20;0.73;;;;;;;-148.56;100.00;61375.16;5075399;28;20073;-30
2022/06/01 02:40:40;;;;;;;1.20;0.90;;;;;;;-148.56;100.00;61375.16;5054290;28;20735;-33
2022/06/01 02:43:05;;;;;;;0.75;0.70;;;;;;;-148.56;100.00;61375.16;5088570;28;20047;-32
2022/06/01 02:45:31;;;;;;;1.85;0.68;;;;;;;-148.56;100.00;61375.16;5086416;28;20877;-30
2022/06/01 02:47:59;;;;;;;1.15;0.68;;;;;;;-148.56;100.00;61375.16;5087091;28;20059;-32
2022/06/01 02:50:26;;;;;;;0.85;0.70;;;;;;;-148.56;100.00;61375.16;5054358;28;20118;-30
2022/06/01 02:52:52;;;;;;;1.77;0.80;;;;;;;-148.56;100.00;61375.16;5091644;28;20074;-33
2022/06/01 02:55:17;;;;;;;0.90;0.60;;;;;;;-148.56;100.00;61375.16;5090841;28;20118;-31
2022/06/01 02:57:43;;;;;;;0.50;0.50;;;;;;;-148.56;100.00;61375.16;5089183;28;20703;-30
2022/06/01 03:00:17;;;;;;;1.90;0.70;;;;;;;-148.56;100.00;61375.16;5087117;28;20911;-31
2022/06/01 03:02:51;;;;;;;0.85;0.70;;;;;;;-148.56;100.00;61375.16;5081226;28;20076;-30
2022/06/01 03:05:17;;;;;;;0.85;0.80;;;;;;;-148.56;100.00;61375.16;5084485;28;20070;-30
2022/06/01 03:07:43;;;;;;;0.57;0.57;;;;;;;-148.56;100.00;61375.16;5052894;28;20031;-32
2022/06/01 03:10:09;;;;;;;1.00;0.60;;;;;;;-148.56;100.00;61375.16;5076432;28;20039;-32
2022/06/01 03:12:35;;;;;;;0.63;0.57;;;;;;;-148.56;100.00;61375.16;5082634;28;20028;-30
2022/06/01 03:15:01;;;;;;;0.68;0.43;;;;;;;-148.56;100.00;61375.16;5077866;28;20031;-33
2022/06/01 03:17:27;;;;;;;0.65;0.50;;;;;;;-148.56;100.00;61375.16;5081950;28;20069;-37
2022/06/01 03:19:52;;;;;;;0.77;0.50;;;;;;;-148.56;100.00;61375.16;5078960;28;20031;-31
2022/06/01 03:22:18;;;;;;;1.10;0.80;;;;;;;-148.56;100.00;61375.16;5085064;28;20028;-31
2022/06/01 03:24:44;;;;;;;0.73;0.68;;;;;;;-148.56;100.00;61375.16;5092994;28;20043;-28
2022/06/01 03:27:09;;;;;;;1.75;0.65;;;;;;;-148.56;100.00;61375.16;5093070;28;20035;-34
2022/06/01 03:29:34;;;;;;;0.63;0.57;;;;;;;-148.56;100.00;61375.16;5092742;28;20031;-29
2022/06/01 03:32:00;;;;;;;0.63;0.60;;;;;;;-148.56;100.00;61375.16;5087055;28;20023;-31
2022/06/01 03:34:28;;;;;;;0.80;0.60;;;;;;;-148.56;100.00;61375.16;5093231;28;20077;-32
2022/06/01 03:36:54;;;;;;;1.00;0.77;;;;;;;-148.56;100.00;61375.16;5088782;28;20517;-38
2022/06/01 03:39:19;;;;;;;1.73;0.63;;;;;;;-148.56;100.00;61375.16;5080924;28;20038;-31
2022/06/01 03:41:45;;;;;;;1.17;0.70;;;;;;;-148.56;100.00;61375.16;5087487;28;20023;-34
2022/06/01 03:47:09;;;;;;;0.65;0.50;;;;;;;-148.56;100.00;61375.16;5082825;28;20072;-33
2022/06/01 03:49:34;;;;;;;0.75;0.60;;;;;;;-148.56;100.00;61375.16;5075290;28;20036;-32
2022/06/01 03:52:00;;;;;;;1.50;0.70;;;;;;;-148.56;100.00;61375.16;5078810;28;20081;-30
2022/06/01 03:54:25;;;;;;;0.82;0.60;;;;;;;-148.56;100.00;61375.16;5082098;28;20039;-35
2022/06/01 03:56:51;;;;;;;0.98;0.55;;;;;;;-148.56;100.00;61375.16;5078228;28;20061;-34
2022/06/01 03:59:16;;;;;;;0.80;0.65;;;;;;;-148.56;100.00;61375.16;5077022;28;20076;-34
2022/06/01 04:01:42;;;;;;;0.50;0.50;;;;;;;-148.56;100.00;61375.16;5061922;28;20059;-36
2022/06/01 04:04:07;;;;;;;1.52;0.65;;;;;;;-148.56;100.00;61375.16;5074893;28;20157;-33
2022/06/01 04:06:33;;;;;;;0.60;0.50;;;;;;;-148.56;100.00;61375.16;5086164;28;20603;-30
2022/06/01 04:08:58;;;;;;;1.65;0.60;;;;;;;-148.56;100.00;61375.16;5077214;28;20112;-32
2022/06/01 04:11:23;;;;;;;0.43;0.43;;;;;;;-148.56;100.00;61375.16;5076888;28;20081;-31
2022/06/01 04:13:49;;;;;;;2.13;0.57;;;;;;;-148.56;100.00;61375.16;5074293;28;20035;-32
2022/06/01 04:16:18;;;;;;;1.25;0.70;;;;;;;-148.56;100.00;61375.16;5072757;28;20620;-32
2022/06/01 04:18:44;;;;;;;1.20;0.75;;;;;;;-148.56;100.00;61375.16;5072916;28;20031;-39
2022/06/01 04:21:10;;;;;;;2.05;0.50;;;;;;;-148.56;100.00;61375.16;5078087;28;20109;-33
2022/06/01 04:23:35;;;;;;;0.63;0.60;;;;;;;-148.56;100.00;61375.16;5064809;28;20044;-31
2022/06/01 04:26:00;;;;;;;0.65;0.50;;;;;;;-148.56;100.00;61375.16;5083562;28;20023;-32
2022/06/01 04:28:26;;;;;;;1.38;0.63;;;;;;;-148.56;100.00;61375.16;5085226;28;20077;-31
2022/06/01 04:30:51;;;;;;;0.70;0.60;;;;;;;-148.56;100.00;61375.16;5080814;28;20053;-34
2022/06/01 04:33:17;;;;;;;0.70;0.57;;;;;;;-148.56;100.00;61375.16;5087954;28;20028;-33
2022/06/01 04:35:43;;;;;;;1.10;0.60;;;;;;;-148.56;100.00;61375.16;5068158;28;21167;-32
2022/06/01 04:38:14;;;;;;;1.27;0.70;;;;;;;-148.56;100.00;61375.16;5077326;28;20035;-30
2022/06/01 04:40:45;;;;;;;1.42;0.70;;;;;;;-148.56;100.00;61375.16;5077191;28;20015;-32
2022/06/01 04:43:15;;;;;;;0.50;0.50;;;;;;;-148.56;100.00;61375.16;5076922;28;20575;-32
2022/06/01 04:45:40;;;;;;;1.60;0.65;;;;;;;-148.56;100.00;61375.16;5080424;28;20051;-32
2022/06/01 04:48:06;;;;;;;0.85;0.50;;;;;;;-148.56;100.00;61375.16;5080470;28;20123;-34
2022/06/01 04:50:31;;;;;;;0.70;0.50;;;;;;;-148.56;100.00;61375.16;5075242;28;20031;-35
2022/06/01 04:52:56;;;;;;;1.10;0.70;;;;;;;-148.56;100.00;61375.16;5081625;28;20039;-33
2022/06/01 04:55:22;;;;;;;1.13;0.50;;;;;;;-148.56;100.00;61375.16;5081261;28;20032;-34
2022/06/01 04:57:48;;;;;;;0.60;0.50;;;;;;;-148.56;100.00;61375.16;5087343;28;20043;-37
2022/06/01 05:00:14;;;;;;;5.32;1.60;;;;;;;-148.56;100.00;61375.16;5079197;28;20115;-33
2022/06/01 05:02:39;;;;;;;7.15;1.48;;;;;;;-148.56;100.00;61375.16;5078205;28;20625;-31
2022/06/01 05:05:05;;;;;;;9.73;0.90;;;;;;;-148.56;100.00;61375.16;5075553;28;20028;-31
2022/06/01 05:07:31;;;;;;;2.78;0.63;;;;;;;-148.56;100.00;61375.16;5081252;28;20028;-37
2022/06/01 05:09:56;;;;;;;3.22;1.00;;;;;;;-148.56;100.00;61375.16;5079768;28;20027;-30
2022/06/01 05:12:21;;;;;;;1.63;0.70;;;;;;;-148.56;100.00;61375.16;5072437;28;20032;-33
2022/06/01 05:14:47;;;;;;;1.35;0.80;;;;;;;-148.56;100.00;61375.16;5070458;28;20098;-32
2022/06/01 05:17:12;;;;;;;1.08;0.60;;;;;;;-148.56;100.00;61375.16;5070179;28;21019;-31
2022/06/01 05:19:38;;;;;;;1.60;0.70;;;;;;;-148.56;100.00;61375.16;5073384;28;20032;-33
2022/06/01 05:22:04;;;;;;;1.75;0.60;;;;;;;-148.56;100.00;61375.16;5079069;28;20027;-34
2022/06/01 05:24:29;;;;;;;1.13;0.60;;;;;;;-148.56;100.00;61375.16;5075012;28;20035;-33
2022/06/01 05:26:54;;;;;;;1.70;0.63;;;;;;;-148.56;100.00;61375.16;5068538;28;20028;-31
2022/06/01 05:29:22;;;;;;;2.78;1.00;;;;;;;-148.56;100.00;61375.16;5076177;28;20733;-32
2022/06/01 05:31:47;;;;;;;2.90;0.63;;;;;;;-148.56;100.00;61375.16;5073437;28;20031;-33
2022/06/01 05:34:13;;;;;;;2.60;0.60;;;;;;;-148.56;100.00;61375.16;5078555;28;20031;-30
2022/06/01 05:36:38;;;;;;;0.80;0.60;;;;;;;-148.56;100.00;61375.16;5067211;28;20040;-32
2022/06/01 05:39:04;;;;;;;0.98;0.60;;;;;;;-148.56;100.00;61375.16;5054678;28;20331;-34
2022/06/01 05:41:29;;;;;;;1.00;0.60;;;;;;;-148.56;100.00;61375.16;5071298;28;20484;-31
2022/06/01 05:43:54;;;;;;;0.90;0.73;;;;;;;-148.56;100.00;61375.16;5079606;28;21789;-33
2022/06/01 05:46:21;;;;;;;1.25;0.68;;;;;;;-148.56;100.00;61375.16;5079666;28;20072;-32
2022/06/01 05:48:46;;;;;;;0.77;0.50;;;;;;;-148.56;100.00;61375.16;5071061;28;20028;-31
2022/06/01 05:51:12;;;;;;;0.95;0.50;;;;;;;-148.56;100.00;61375.16;5080198;28;20031;-34
2022/06/01 05:53:37;;;;;;;0.82;0.57;;;;;;;-148.56;100.00;61375.16;5069215;28;20054;-33
2022/06/01 05:56:03;;;;;;;0.45;0.45;;;;;;;-148.56;100.00;61375.16;5080111;28;20043;-34
2022/06/01 05:58:28;;;;;;;0.50;0.43;;;;;;;-148.56;100.00;61375.16;5073894;28;20054;-33
2022/06/01 06:00:55;;;;;;;0.85;0.60;;;;;;;-148.56;100.00;61375.16;5072542;28;20028;-31
2022/06/01 06:03:23;;;;;;;1.20;0.70;;;;;;;-148.56;100.00;61375.16;5079655;28;20054;-31
2022/06/01 06:08:32;;;;;;;6.63;0.95;;;;;;;-148.56;100.00;61375.16;5077444;28;20708;-32
2022/06/01 06:10:58;;;;;;;4.13;1.08;;;;;;;-148.56;100.00;61375.16;5083945;28;20032;-35
2022/06/01 06:13:23;;;;;;;6.78;1.30;;;;;;;-148.56;100.00;61375.16;5090387;28;20035;-34
2022/06/01 06:15:48;;;;;;;6.60;1.40;;;;;;;-148.56;100.00;61375.16;5088035;28;20024;-33
2022/06/01 06:18:14;;;;;;;2.72;1.35;;;;;;;-148.56;100.00;61375.16;5084496;28;20035;-33
2022/06/01 06:20:46;;;;;;;5.50;1.70;;;;;;;-148.56;100.00;61375.16;5094996;28;20024;-32
2022/06/01 06:23:11;;;;;;;4.38;1.77;;;;;;;-148.56;100.00;61375.16;5085847;28;20043;-32
2022/06/01 06:25:37;;;;;;;7.93;2.58;;;;;;;-148.56;100.00;61375.16;5083826;28;20019;-31
2022/06/01 06:28:03;;;;;;;6.90;2.40;;;;;;;-148.56;100.00;61375.16;5088472;28;22699;-37
2022/06/01 06:30:29;;;;;;;7.40;2.40;;;;;;;-148.56;100.00;61375.16;5081340;28;20051;-32
2022/06/01 06:32:54;;;;;;;7.45;2.63;;;;;;;-148.56;100.00;61375.16;5080124;28;20134;-32
2022/06/01 06:35:19;;;;;;;7.82;2.97;;;;;;;-148.56;100.00;61375.16;5079629;28;20719;-30
2022/06/01 06:37:45;;;;;;;8.85;2.72;;;;;;;-148.56;100.00;61375.16;5084101;28;20035;-32
2022/06/01 06:40:11;;;;;;;6.55;2.80;;;;;;;-148.56;100.00;61375.16;5089733;28;20030;-32
2022/06/01 06:42:36;;;;;;;8.30;2.85;;;;;;;-148.56;100.00;61375.16;5093553;28;20107;-32
2022/06/01 06:45:03;;;;;;;10.75;3.28;;;;;;;-148.56;100.00;61375.16;5093071;28;20520;-33
2022/06/01 06:47:30;;;;;;;6.85;2.97;;;;;;;-148.56;100.00;61375.16;5095700;28;20156;-32
2022/06/01 06:49:55;;;;;;;5.80;2.65;;;;;;;-148.56;100.00;61375.16;5089422;28;20042;-32
2022/06/01 06:52:20;;;;;;;11.50;3.00;;;;;;;-148.56;100.00;61375.16;5090090;28;20023;-35
2022/06/01 06:54:46;;;;;;;9.75;2.90;;;;;;;-148.56;100.00;61375.16;5094660;28;20027;-31
2022/06/01 06:57:11;;;;;;;7.95;2.85;;;;;;;-148.56;100.00;61375.16;5093467;28;21028;-32
2022/06/01 06:59:37;;;;;;;7.53;2.97;;;;;;;-148.56;100.00;61375.16;5089216;28;20481;-31
2022/06/01 07:02:03;;;;;;;8.07;2.70;;;;;;;-148.56;100.00;61375.16;5090087;28;20031;-35
2022/06/01 07:04:28;;;;;;;12.10;2.90;;;;;;;-148.56;100.00;61375.16;5090320;28;20024;-32
2022/06/01 07:06:54;;;;;;;5.90;2.78;;;;;;;-148.56;100.00;61375.16;5093974;28;20066;-32
2022/06/01 07:09:19;;;;;;;11.70;2.92;;;;;;;-148.56;100.00;61375.16;5079731;28;20074;-32
2022/06/01 07:11:44;;;;;;;7.07;2.63;;;;;;;-148.56;100.00;61375.16;5080995;28;20672;-31
2022/06/01 07:14:10;;;;;;;9.02;2.70;;;;;;;-148.56;100.00;61375.16;5088332;28;20104;-34
2022/06/01 07:16:35;;;;;;;8.25;2.50;;;;;;;-148.56;100.00;61375.16;5083490;28;20031;-37
2022/06/01 07:19:02;;;;;;;7.13;2.65;;;;;;;-148.56;100.00;61375.16;5088267;28;20776;-32
2022/06/01 07:21:28;;;;;;;12.18;2.85;;;;;;;-148.56;100.00;61375.16;5082948;28;20019;-32
2022/06/01 07:23:54;;;;;;;8.55;2.75;;;;;;;-148.56;100.00;61375.16;5086045;28;20024;-32
2022/06/01 07:26:21;;;;;;;6.22;2.60;;;;;;;-148.56;100.00;61375.16;5080813;28;20406;-33
2022/06/01 07:28:46;;;;;;;5.32;2.42;;;;;;;-148.56;100.00;61375.16;5084994;28;20105;-33
2022/06/01 07:31:13;;;;;;;6.45;2.47;;;;;;;-148.56;100.00;61375.16;5087527;28;20106;-31
2022/06/01 07:33:38;;;;;;;8.75;2.60;;;;;;;-148.56;100.00;61375.16;5084455;28;20057;-33
2022/06/01 07:36:06;;;;;;;6.10;2.45;;;;;;;-148.56;100.00;61375.16;5082182;28;20028;-34
2022/06/01 07:44:09;;;;;;;5.82;2.72;;;;;;;-148.56;100.00;61375.16;5070229;28;20448;-32
2022/06/01 07:46:35;;;;;;;5.45;2.20;;;;;;;-148.56;100.00;61375.16;5084334;28;20043;-35
2022/06/01 07:49:00;;;;;;;5.00;2.50;;;;;;;-148.56;100.00;61375.16;5086926;28;20118;-35
2022/06/01 07:51:26;;;;;;;8.60;2.40;;;;;;;-148.56;100.00;61375.16;5084167;28;20081;-35
2022/06/01 07:53:51;;;;;;;4.65;2.10;;;;;;;-148.56;100.00;61375.16;5088008;28;20039;-36
2022/06/01 07:56:16;;;;;;;4.18;2.13;;;;;;;-148.56;100.00;61375.16;5086483;28;20099;-39
2022/06/01 07:58:42;;;;;;;5.55;2.20;;;;;;;-148.56;100.00;61375.16;5087971;28;20058;-38
2022/06/01 08:01:09;;;;;;;6.18;2.00;;;;;;;-148.56;100.00;61375.16;5088023;28;20631;-31
2022/06/01 08:03:35;;;;;;;4.88;1.98;;;;;;;-148.56;100.00;61375.16;5080423;28;20043;-31
2022/06/01 08:06:01;;;;;;;5.43;2.38;;;;;;;-148.56;100.00;61375.16;5087091;28;20023;-32
2022/06/01 08:08:26;;;;;;;3.95;2.05;;;;;;;-148.56;100.00;61375.16;5083984;28;20039;-31
2022/06/01 08:10:52;;;;;;;4.20;2.05;;;;;;;-148.56;100.00;61375.16;5085043;28;20465;-33
2022/06/01 08:13:17;;;;;;;5.68;2.35;;;;;;;-148.56;100.00;61375.16;5084025;28;20798;-31
2022/06/01 08:15:47;;;;;;;4.82;2.00;;;;;;;-148.56;100.00;61375.16;5084747;28;20039;-32
2022/06/01 08:18:22;;;;;;;5.13;2.13;;;;;;;-148.56;100.00;61375.16;5079167;28;20474;-32
2022/06/01 08:20:47;;;;;;;3.95;2.03;;;;;;;-148.56;100.00;61375.16;5083560;28;20035;-34
2022/06/01 08:23:13;;;;;;;15.05;2.17;;;;;;;-148.56;100.00;61375.16;5082470;28;20019;-31
2022/06/01 08:25:39;;;;;;;8.43;1.65;;;;;;;-148.56;100.00;61375.16;5067399;28;20023;-34
2022/06/01 08:28:05;;;;;;;5.07;1.38;;;;;;;-148.56;100.00;61375.16;5084138;28;20031;-31
2022/06/01 08:30:31;;;;;;;4.50;1.33;;;;;;;-148.56;100.00;61375.16;5094646;28;20023;-31
2022/06/01 08:32:57;;;;;;;2.17;1.38;;;;;;;-148.56;100.00;61375.16;5082217;28;20096;-31
2022/06/01 08:35:28;;;;;;;2.92;1.20;;;;;;;-148.56;100.00;61375.16;5086191;28;20027;-31
2022/06/01 08:37:54;;;;;;;14.73;1.60;;;;;;;-148.56;100.00;61375.16;5076606;28;20035;-32
2022/06/01 08:40:22;;;;;;;6.88;1.50;;;;;;;-148.56;100.00;61375.16;5077413;28;20402;-31
2022/06/01 08:43:01;;;;;;;5.68;1.65;;;;;;;-148.56;100.00;61375.16;5044772;28;20500;-36
2022/06/01 08:45:27;;;;;;;7.32;2.10;;;;;;;-148.56;100.00;61375.16;5054016;28;20020;-32
2022/06/01 08:47:52;;;;;;;5.60;1.85;;;;;;;-148.56;100.00;61375.16;5043229;28;20782;-29
2022/06/01 08:50:29;;;;;;;2.13;1.30;;;;;;;-148.56;100.00;61375.16;5084866;28;21497;-35
2022/06/01 08:52:56;;;;;;;5.15;1.50;;;;;;;-148.56;100.00;61375.16;5079372;28;20020;-31
2022/06/01 08:55:22;;;;;;;2.45;1.50;;;;;;;-148.56;100.00;61375.16;5064881;28;21449;-32
2022/06/01 08:57:57;;;;;;;2.33;1.60;;;;;;;-148.56;100.00;61375.16;5066686;28;20153;-30
2022/06/01 09:00:23;;;;;;;2.97;1.67;;;;;;;-148.56;100.00;61375.16;5077743;28;20038;-30
2022/06/01 09:03:07;;;;;;;2.97;1.45;;;;;;;-148.56;100.00;61375.16;5079697;28;20127;-30
2022/06/01 09:05:49;;;;;;;4.13;1.45;;;;;;;-148.56;100.00;61375.16;5080796;28;20039;-30
2022/06/01 09:08:50;;;;;;;3.28;1.60;;;;;;;-148.56;100.00;61375.16;5076722;28;20537;-30
2022/06/01 09:11:18;;;;;;;4.38;1.50;;;;;;;-148.56;100.00;61375.16;5058912;28;20039;-30
2022/06/01 09:14:02;;;;;;;2.80;1.45;;;;;;;-148.56;100.00;61375.16;5060753;28;20058;-33
2022/06/01 09:16:42;;;;;;;4.22;1.35;;;;;;;-148.56;100.00;61375.16;5081560;28;20046;-30
2022/06/01 09:19:11;;;;;;;4.18;1.50;;;;;;;-148.56;100.00;61375.16;5083368;28;20036;-33
2022/06/01 09:24:28;;;;;;;2.22;1.38;;;;;;;-148.56;100.00;61375.16;5081838;28;20100;-32
2022/06/01 09:27:07;;;;;;;7.78;1.60;;;;;;;-148.56;100.00;61375.16;5063306;28;20549;-32
2022/06/01 09:29:34;;;;;;;2.90;1.38;;;;;;;-148.56;100.00;61375.16;5073554;28;20572;-33
2022/06/01 09:32:05;;;;;;;2.80;1.15;;;;;;;-148.56;100.00;61375.16;5083812;28;20040;-32
2022/06/01 09:34:36;;;;;;;4.28;1.42;;;;;;;-148.56;100.00;61375.16;5077985;28;20024;-33
2022/06/01 09:37:03;;;;;;;8.93;1.80;;;;;;;-148.56;100.00;61375.16;5059627;28;20589;-31
2022/06/01 09:39:29;;;;;;;9.85;1.70;;;;;;;-148.56;100.00;61375.16;5085509;28;20571;-30
2022/06/01 09:42:28;;;;;;;2.20;1.05;;;;;;;-148.56;100.00;61375.16;5073759;28;20747;-33
2022/06/01 09:44:55;;;;;;;2.60;1.20;;;;;;;-148.56;100.00;61375.16;5058764;28;20118;-33
2022/06/01 09:47:43;;;;;;;10.82;2.25;;;;;;;-148.56;100.00;61375.16;5071865;28;20035;-35
2022/06/01 09:50:20;;;;;;;6.65;1.77;;;;;;;-148.56;100.00;61375.16;5066056;28;20035;-32
2022/06/01 09:52:46;;;;;;;7.88;2.22;;;;;;;-148.56;100.00;61375.16;5075112;28;20107;-31
2022/06/01 09:55:22;;;;;;;6.47;2.15;;;;;;;-148.56;100.00;61375.16;5071880;28;20506;-31
2022/06/01 09:58:02;;;;;;;9.10;2.33;;;;;;;-148.56;100.00;61375.16;5076593;28;20983;-37
2022/06/01 10:06:25;;;;;;;9.82;2.90;;;;;;;-148.56;100.00;61375.16;5075044;28;20130;-34
2022/06/01 10:08:58;;;;;;;9.65;2.63;;;;;;;-148.56;100.00;61375.16;5073933;28;20024;-36
2022/06/01 10:11:30;;;;;;;5.68;2.92;;;;;;;-148.56;100.00;61375.16;5076724;28;20027;-30
2022/06/01 10:14:14;;;;;;;7.53;2.80;;;;;;;-148.56;100.00;61375.16;5062215;28;21124;-31
2022/06/01 10:17:00;;;;;;;10.50;3.13;;;;;;;-148.56;100.00;61375.16;5057304;28;20024;-30
2022/06/01 10:19:30;;;;;;;11.30;3.20;;;;;;;-148.56;100.00;61375.16;5075125;28;20032;-30
2022/06/01 10:22:13;;;;;;;11.50;3.00;;;;;;;-148.56;100.00;61375.16;5072359;28;20659;-32
2022/06/01 10:25:01;;;;;;;6.43;3.05;;;;;;;-148.56;100.00;61375.16;5069657;28;20047;-36
2022/06/01 10:27:32;;;;;;;9.48;3.08;;;;;;;-148.56;100.00;61375.16;5046926;28;20085;-34
2022/06/01 10:30:15;;;;;;;5.75;3.03;;;;;;;-148.56;100.00;61375.16;5050157;28;20048;-33
2022/06/01 10:32:47;;;;;;;8.23;3.10;;;;;;;-148.56;100.00;61375.16;5061874;28;20024;-33
2022/06/01 10:35:25;;;;;;;18.65;2.70;;;;;;;-148.56;100.00;61375.16;5051795;28;20031;-33
2022/06/01 10:38:31;;;;;;;12.05;2.35;;;;;;;-148.56;100.00;61375.16;5058113;28;20474;-32
2022/06/01 10:41:06;;;;;;;9.93;2.13;;;;;;;-148.56;100.00;61375.16;4961016;28;20080;-32
2022/06/01 10:43:36;;;;;;;9.77;1.70;;;;;;;-148.56;100.00;61375.16;5038718;28;20067;-31
2022/06/01 10:46:23;;;;;;;8.13;1.85;;;;;;;-148.56;100.00;61375.16;5050986;28;20971;-34
2022/06/01 10:49:16;;;;;;;9.50;2.15;;;;;;;-148.56;100.00;61375.16;5063814;28;20565;-35
2022/06/01 10:51:41;;;;;;;5.75;1.40;;;;;;;-148.56;100.00;61375.16;5064826;28;20028;-38
2022/06/01 10:54:21;;;;;;;5.82;2.13;;;;;;;-148.56;100.00;61375.16;5063785;28;20028;-33
2022/06/01 10:56:46;;;;;;;5.47;1.98;;;;;;;-148.56;100.00;61375.16;5023621;28;20051;-34
2022/06/01 10:59:13;;;;;;;4.38;2.00;;;;;;;-148.56;100.00;61375.16;5067236;28;20024;-34
2022/06/01 11:02:03;;;;;;;3.22;1.80;;;;;;;-148.56;100.00;61375.16;5065768;28;20055;-33
2022/06/01 11:05:13;;;;;;;3.90;1.48;;;;;;;-148.56;100.00;61375.16;5064103;28;20035;-31
2022/06/01 11:08:07;;;;;;;4.30;1.63;;;;;;;-148.56;100.00;61375.16;5069429;28;20157;-31
2022/06/01 11:10:45;;;;;;;6.05;2.03;;;;;;;-148.56;100.00;61375.16;5048624;28;20027;-34
2022/06/01 11:13:42;;;;;;;8.48;1.77;;;;;;;-148.56;100.00;61375.16;5074228;28;20023;-36
2022/06/01 11:16:13;;;;;;;6.40;2.00;;;;;;;-148.56;100.00;61375.16;5058610;28;20015;-31
2022/06/01 11:18:57;;;;;;;3.92;1.90;;;;;;;-148.56;100.00;61375.16;5081710;28;20035;-35
2022/06/01 11:21:34;;;;;;;5.80;1.90;;;;;;;-148.56;100.00;61375.16;5083619;28;20034;-29
2022/06/01 11:24:11;;;;;;;4.50;1.85;;;;;;;-148.56;100.00;61375.16;5082275;28;20084;-30
2022/06/01 11:26:59;;;;;;;4.38;1.90;;;;;;;-148.56;100.00;61375.16;5083792;28;20066;-30
2022/06/01 11:29:47;;;;;;;3.40;1.80;;;;;;;-148.56;100.00;61375.16;5082404;28;20900;-32
2022/06/01 11:32:18;;;;;;;6.72;1.73;;;;;;;-148.56;100.00;61375.16;5083059;28;20128;-31
2022/06/01 11:34:57;;;;;;;6.50;1.70;;;;;;;-148.56;100.00;61375.16;5081694;28;20032;-28
2022/06/01 11:37:29;;;;;;;9.50;1.60;;;;;;;-148.56;100.00;61375.16;5060435;28;21094;-33
2022/06/01 11:40:12;;;;;;;4.65;1.65;;;;;;;-148.56;100.00;61375.16;5059049;28;20043;-31
2022/06/01 11:42:45;;;;;;;7.53;1.92;;;;;;;-148.56;100.00;61375.16;5062770;28;20027;-29
2022/06/01 11:45:22;;;;;;;8.00;1.88;;;;;;;-148.56;100.00;61375.16;5062868;28;20118;-29